Time;durP1;ratioP1;P1;durP2;ratioP2;P2;SDS_P1;SDS_P2;PMS_P1;PMS_P2;Temp;Humidity;BMP_temperature;BMP_pressure;BME280_temperature;BME280_humidity;BME280_pressure;Samples;Min_cycle;Max_cycle;Signal;HPM_P1;HPM_P2
2021/01/24 00:02:07;;;;;;;6.97;4.67;;;4.10;99.90;;;;;;5053258;28;20190;-66
2021/01/24 00:04:33;;;;;;;6.80;4.43;;;4.10;99.90;;;;;;5053261;28;20244;-65
2021/01/24 00:06:58;;;;;;;8.40;6.40;;;4.10;99.90;;;;;;5053410;28;20175;-65
2021/01/24 00:09:24;;;;;;;10.37;7.37;;;4.10;99.90;;;;;;5053377;28;20250;-68
2021/01/24 00:11:50;;;;;;;8.17;6.93;;;4.00;99.90;;;;;;5053177;28;20280;-65
2021/01/24 00:14:15;;;;;;;10.70;7.53;;;4.10;99.90;;;;;;5033605;28;20162;-67
2021/01/24 00:16:41;;;;;;;11.50;7.03;;;4.10;99.90;;;;;;5053057;28;20175;-68
2021/01/24 00:19:06;;;;;;;8.77;6.63;;;4.20;99.90;;;;;;5052987;28;20637;-66
2021/01/24 00:21:32;;;;;;;6.23;4.20;;;4.10;99.90;;;;;;5048735;28;20174;-65
2021/01/24 00:23:57;;;;;;;9.33;6.27;;;4.10;99.90;;;;;;5052940;28;20175;-68
2021/01/24 00:26:23;;;;;;;7.70;6.43;;;4.20;99.90;;;;;;5044217;28;20184;-65
2021/01/24 00:28:49;;;;;;;7.93;6.30;;;4.20;99.90;;;;;;5037144;28;20290;-68
2021/01/24 00:31:14;;;;;;;6.27;5.17;;;4.20;99.90;;;;;;5048207;28;20207;-65
2021/01/24 00:33:40;;;;;;;8.70;5.97;;;4.20;99.90;;;;;;5052643;28;20688;-65
2021/01/24 00:36:06;;;;;;;5.33;4.07;;;4.30;99.90;;;;;;5052703;28;20183;-67
2021/01/24 00:38:31;;;;;;;6.33;5.13;;;4.30;99.90;;;;;;5034954;28;20171;-67
2021/01/24 00:41:01;;;;;;;5.80;5.03;;;4.30;99.90;;;;;;5050664;28;20483;-68
2021/01/24 00:43:27;;;;;;;7.70;5.23;;;4.20;99.90;;;;;;5030835;28;20217;-67
2021/01/24 00:45:53;;;;;;;6.57;4.03;;;4.30;99.90;;;;;;5052616;28;20421;-69
2021/01/24 00:48:18;;;;;;;4.63;3.63;;;4.30;99.90;;;;;;5052586;28;20437;-66
2021/01/24 00:50:44;;;;;;;4.30;3.10;;;4.20;99.90;;;;;;5052307;28;20175;-66
2021/01/24 00:53:09;;;;;;;3.30;3.00;;;4.30;99.90;;;;;;5052541;28;20278;-65
2021/01/24 00:55:35;;;;;;;2.93;2.13;;;4.20;99.90;;;;;;5052328;28;20186;-67
2021/01/24 00:58:01;;;;;;;2.80;1.73;;;4.30;99.90;;;;;;5051297;28;20187;-65
2021/01/24 01:00:26;;;;;;;4.53;1.47;;;4.30;99.90;;;;;;5042197;28;20187;-67
2021/01/24 01:02:52;;;;;;;1.33;1.23;;;4.30;99.90;;;;;;5038682;28;20175;-68
2021/01/24 01:05:17;;;;;;;1.30;1.20;;;4.30;99.90;;;;;;5049811;28;20305;-66
2021/01/24 01:07:43;;;;;;;1.73;1.20;;;4.40;99.90;;;;;;5052101;28;20637;-66
2021/01/24 01:10:09;;;;;;;2.00;1.03;;;4.30;99.90;;;;;;5052005;28;20262;-66
2021/01/24 01:12:35;;;;;;;0.60;0.60;;;4.30;99.90;;;;;;5051695;28;20592;-65
2021/01/24 01:15:00;;;;;;;1.17;0.80;;;4.30;99.90;;;;;;5051638;28;20480;-63
2021/01/24 01:17:26;;;;;;;0.80;0.53;;;4.30;99.90;;;;;;5051777;28;20649;-66
2021/01/24 01:19:52;;;;;;;2.73;0.73;;;4.30;99.90;;;;;;5052076;28;20220;-62
2021/01/24 01:22:17;;;;;;;1.23;0.60;;;4.30;99.90;;;;;;5051837;28;20176;-65
2021/01/24 01:24:43;;;;;;;0.50;0.50;;;4.20;99.90;;;;;;5051738;28;20250;-65
2021/01/24 01:27:08;;;;;;;2.40;0.70;;;4.10;99.90;;;;;;5032395;28;20175;-67
2021/01/24 01:29:34;;;;;;;1.03;0.70;;;4.00;99.90;;;;;;5044819;28;20537;-67
2021/01/24 01:31:59;;;;;;;0.50;0.50;;;3.90;99.90;;;;;;5037878;28;20229;-66
2021/01/24 01:34:25;;;;;;;0.50;0.50;;;3.90;99.90;;;;;;5051714;28;20179;-68
2021/01/24 01:36:50;;;;;;;0.63;0.50;;;3.80;99.90;;;;;;5051544;28;20779;-69
2021/01/24 01:39:16;;;;;;;0.57;0.50;;;3.80;99.90;;;;;;5051639;28;20510;-67
2021/01/24 01:41:41;;;;;;;0.70;0.60;;;3.70;99.90;;;;;;5049091;28;20261;-66
2021/01/24 01:44:07;;;;;;;0.40;0.40;;;3.70;99.90;;;;;;5042898;28;20182;-68
2021/01/24 01:46:33;;;;;;;0.67;0.57;;;3.60;99.90;;;;;;5042423;28;20183;-65
2021/01/24 01:48:59;;;;;;;0.93;0.73;;;3.60;99.90;;;;;;5039994;28;20271;-67
2021/01/24 01:51:25;;;;;;;0.53;0.53;;;3.60;99.90;;;;;;5044706;28;20229;-68
2021/01/24 01:53:53;;;;;;;0.63;0.60;;;3.60;99.90;;;;;;5050931;28;20175;-68
2021/01/24 01:56:19;;;;;;;0.63;0.57;;;3.60;99.90;;;;;;5029823;28;20406;-65
2021/01/24 01:58:44;;;;;;;1.17;0.50;;;2.50;99.90;;;;;;5051240;28;20420;-66
2021/01/24 02:01:30;;;;;;;0.67;0.60;;;3.60;99.90;;;;;;5047109;28;20214;-65
2021/01/24 02:04:06;;;;;;;0.90;0.70;;;3.50;99.90;;;;;;5047275;28;20199;-68
2021/01/24 02:06:58;;;;;;;1.13;0.60;;;3.50;99.90;;;;;;5050841;28;20818;-64
2021/01/24 02:09:34;;;;;;;0.40;0.40;;;3.50;99.90;;;;;;5050885;28;20437;-67
2021/01/24 02:12:16;;;;;;;0.60;0.60;;;3.50;99.90;;;;;;5051253;28;20457;-67
2021/01/24 02:14:55;;;;;;;0.80;0.60;;;3.50;99.90;;;;;;5049797;28;20413;-67
2021/01/24 02:17:23;;;;;;;1.13;0.50;;;3.50;99.90;;;;;;5051135;28;20410;-65
2021/01/24 02:19:55;;;;;;;1.10;0.80;;;3.40;99.90;;;;;;5051150;28;20882;-65
2021/01/24 02:22:24;;;;;;;1.50;0.97;;;3.40;99.90;;;;;;5051196;28;20539;-68
2021/01/24 02:25:03;;;;;;;2.47;1.00;;;3.40;99.90;;;;;;5051434;28;20428;-66
2021/01/24 02:27:48;;;;;;;1.57;1.30;;;3.40;99.90;;;;;;5050500;28;20471;-64
2021/01/24 02:30:28;;;;;;;1.80;1.50;;;3.40;99.90;;;;;;5039311;28;20414;-67
2021/01/24 02:33:06;;;;;;;3.00;1.90;;;3.40;99.90;;;;;;5049673;28;20479;-67
2021/01/24 02:35:37;;;;;;;2.80;1.97;;;3.30;99.90;;;;;;5050795;28;20413;-67
2021/01/24 02:38:05;;;;;;;3.20;2.77;;;3.30;99.90;;;;;;5050683;28;20549;-66
2021/01/24 02:40:34;;;;;;;3.90;1.90;;;3.30;99.90;;;;;;5050840;28;20423;-67
2021/01/24 02:43:02;;;;;;;5.43;3.67;;;3.30;99.90;;;;;;5049885;28;20778;-65
2021/01/24 02:45:28;;;;;;;4.03;3.60;;;3.20;99.90;;;;;;5050648;28;20429;-67
2021/01/24 02:47:54;;;;;;;8.00;3.77;;;3.30;99.90;;;;;;5050747;28;20421;-67
2021/01/24 02:50:20;;;;;;;5.67;3.87;;;3.30;99.90;;;;;;5049320;28;20440;-66
2021/01/24 02:52:47;;;;;;;4.40;2.73;;;3.30;99.90;;;;;;5032528;28;20473;-66
2021/01/24 02:55:14;;;;;;;5.27;2.90;;;3.30;99.90;;;;;;5038469;28;20505;-65
2021/01/24 02:57:40;;;;;;;4.23;3.77;;;3.30;99.90;;;;;;5049475;28;20418;-67
2021/01/24 03:00:08;;;;;;;5.50;2.97;;;3.30;99.90;;;;;;5050520;28;20424;-65
2021/01/24 03:02:34;;;;;;;4.80;3.43;;;3.30;99.90;;;;;;5046435;28;20429;-68
2021/01/24 03:05:00;;;;;;;4.83;3.43;;;3.40;99.90;;;;;;5038511;28;20462;-64
2021/01/24 03:07:27;;;;;;;6.33;4.40;;;3.40;99.90;;;;;;5041754;28;20421;-68
2021/01/24 03:09:52;;;;;;;6.37;4.83;;;3.40;99.90;;;;;;5034475;28;20179;-68
2021/01/24 03:12:18;;;;;;;6.57;3.70;;;3.40;99.90;;;;;;5040316;28;20469;-66
2021/01/24 03:14:46;;;;;;;4.50;2.67;;;3.40;99.90;;;;;;5042444;28;20210;-65
2021/01/24 03:17:15;;;;;;;4.77;3.70;;;3.40;99.90;;;;;;5050169;28;20179;-66
2021/01/24 03:19:43;;;;;;;7.70;4.67;;;3.40;99.90;;;;;;5050153;28;20428;-67
2021/01/24 03:22:09;;;;;;;3.63;2.13;;;3.30;99.90;;;;;;5050273;28;20413;-64
2021/01/24 03:24:37;;;;;;;7.37;4.60;;;3.30;99.90;;;;;;5050331;28;20426;-68
2021/01/24 03:27:03;;;;;;;7.73;4.67;;;3.30;99.90;;;;;;5044921;28;20429;-67
2021/01/24 03:29:29;;;;;;;8.57;5.30;;;3.30;99.90;;;;;;5046169;28;20433;-67
2021/01/24 03:31:54;;;;;;;7.40;3.57;;;3.20;99.90;;;;;;5040372;28;20453;-67
2021/01/24 03:34:25;;;;;;;7.40;4.87;;;3.00;99.90;;;;;;5040514;28;20180;-65
2021/01/24 03:36:52;;;;;;;6.70;4.40;;;2.90;99.90;;;;;;5041896;28;20187;-66
2021/01/24 03:39:18;;;;;;;8.33;4.40;;;2.80;99.90;;;;;;5051479;28;20742;-68
2021/01/24 03:41:45;;;;;;;7.50;5.17;;;2.80;99.90;;;;;;5045809;28;20463;-67
2021/01/24 03:44:11;;;;;;;8.30;3.63;;;2.80;99.90;;;;;;5043277;28;20415;-65
2021/01/24 03:46:37;;;;;;;12.33;5.43;;;2.90;99.90;;;;;;5047393;28;20477;-67
2021/01/24 03:49:04;;;;;;;5.63;3.83;;;2.80;99.90;;;;;;5048017;28;20637;-66
2021/01/24 03:51:30;;;;;;;6.90;4.47;;;2.80;99.90;;;;;;5032875;28;20469;-69
2021/01/24 03:53:56;;;;;;;8.13;4.27;;;2.80;99.90;;;;;;5053698;28;20517;-67
2021/01/24 03:56:22;;;;;;;4.73;3.03;;;2.80;99.90;;;;;;5053755;28;20171;-68
2021/01/24 03:58:47;;;;;;;6.50;4.23;;;2.70;99.90;;;;;;5053400;28;20236;-66
2021/01/24 04:01:14;;;;;;;5.60;3.87;;;2.70;99.90;;;;;;5045067;28;20600;-68
2021/01/24 04:03:40;;;;;;;6.63;3.80;;;2.70;99.90;;;;;;5045166;28;20183;-67
2021/01/24 04:06:05;;;;;;;9.63;5.10;;;2.70;99.90;;;;;;5049138;28;20457;-66
2021/01/24 04:08:31;;;;;;;7.00;4.00;;;2.80;99.90;;;;;;5034904;28;20618;-66
2021/01/24 04:10:56;;;;;;;5.27;3.40;;;2.80;99.90;;;;;;5040299;28;20187;-65
2021/01/24 04:13:22;;;;;;;3.63;2.23;;;2.80;99.90;;;;;;5053282;28;20625;-68
2021/01/24 04:15:48;;;;;;;3.10;2.70;;;2.80;99.90;;;;;;5050334;28;20182;-68
2021/01/24 04:18:14;;;;;;;7.30;3.17;;;2.70;99.90;;;;;;5053341;28;20202;-65
2021/01/24 04:20:39;;;;;;;4.77;3.40;;;2.70;99.90;;;;;;5053541;28;20186;-64
2021/01/24 04:23:05;;;;;;;3.50;2.20;;;2.80;99.90;;;;;;5053021;28;20190;-68
2021/01/24 04:25:31;;;;;;;3.87;3.17;;;2.80;99.90;;;;;;5052205;28;20249;-69
2021/01/24 04:27:56;;;;;;;5.50;2.77;;;2.70;99.90;;;;;;5052843;28;20175;-67
2021/01/24 04:30:22;;;;;;;6.07;3.33;;;2.70;99.90;;;;;;5053160;28;20217;-65
2021/01/24 04:32:48;;;;;;;4.33;2.60;;;2.70;99.90;;;;;;5047290;28;20214;-69
2021/01/24 04:35:13;;;;;;;4.33;2.83;;;2.70;99.90;;;;;;5034707;28;20274;-68
2021/01/24 04:37:39;;;;;;;6.07;2.87;;;2.70;99.90;;;;;;5053383;28;20178;-67
2021/01/24 04:40:05;;;;;;;7.13;3.70;;;2.70;99.90;;;;;;5032075;28;20180;-65
2021/01/24 04:42:31;;;;;;;7.20;3.90;;;2.70;99.90;;;;;;5044280;28;20701;-66
2021/01/24 04:44:56;;;;;;;6.50;3.17;;;2.70;99.90;;;;;;5047733;28;20497;-67
2021/01/24 04:47:25;;;;;;;4.20;3.10;;;2.70;99.90;;;;;;5036794;28;20691;-66
2021/01/24 04:49:51;;;;;;;8.93;3.90;;;2.70;99.90;;;;;;5047998;28;20266;-68
2021/01/24 04:52:17;;;;;;;5.27;3.20;;;2.60;99.90;;;;;;5048220;28;20549;-66
2021/01/24 04:54:43;;;;;;;6.70;3.70;;;2.60;99.90;;;;;;5052775;28;20467;-68
2021/01/24 04:57:12;;;;;;;5.23;2.60;;;2.60;99.90;;;;;;5052466;28;20413;-65
2021/01/24 04:59:38;;;;;;;2.83;2.20;;;2.60;99.90;;;;;;5052697;28;20421;-67
2021/01/24 05:02:08;;;;;;;3.97;2.60;;;2.60;99.90;;;;;;5052421;28;20417;-65
2021/01/24 05:04:33;;;;;;;3.07;2.40;;;2.50;99.90;;;;;;5052210;28;20225;-64
2021/01/24 05:06:59;;;;;;;3.97;2.53;;;2.50;99.90;;;;;;5052361;28;20422;-65
2021/01/24 05:09:24;;;;;;;3.30;1.60;;;2.50;99.90;;;;;;5052408;28;20560;-65
2021/01/24 05:11:51;;;;;;;5.30;3.70;;;2.50;99.90;;;;;;5043110;28;20200;-67
2021/01/24 05:14:27;;;;;;;3.33;2.53;;;2.40;99.90;;;;;;5036741;28;20569;-67
2021/01/24 05:16:54;;;;;;;4.33;2.17;;;2.40;99.90;;;;;;5051656;28;20428;-66
2021/01/24 05:19:21;;;;;;;3.50;2.70;;;2.50;99.90;;;;;;5045612;28;20488;-67
2021/01/24 05:21:47;;;;;;;5.10;2.67;;;2.50;99.90;;;;;;5050233;28;20464;-65
2021/01/24 05:24:16;;;;;;;3.93;2.30;;;2.50;99.90;;;;;;5041599;28;20422;-65
2021/01/24 05:26:47;;;;;;;2.50;1.67;;;2.50;99.90;;;;;;5032556;28;20426;-69
2021/01/24 05:29:19;;;;;;;2.37;1.93;;;2.40;99.90;;;;;;5052059;28;20425;-66
2021/01/24 05:31:46;;;;;;;4.73;2.37;;;2.40;99.90;;;;;;5049556;28;20551;-65
2021/01/24 05:34:15;;;;;;;6.03;2.40;;;2.40;99.90;;;;;;5040426;28;20418;-66
2021/01/24 05:36:42;;;;;;;3.47;2.07;;;2.40;99.90;;;;;;5050676;28;20449;-65
2021/01/24 05:39:08;;;;;;;4.27;2.60;;;2.40;99.90;;;;;;5051479;28;20765;-65
2021/01/24 05:41:34;;;;;;;3.70;1.57;;;2.40;99.90;;;;;;5051762;28;20414;-66
2021/01/24 05:44:00;;;;;;;3.13;2.37;;;2.40;99.90;;;;;;5051487;28;20425;-65
2021/01/24 05:46:33;;;;;;;3.53;1.90;;;2.40;99.90;;;;;;5051637;28;20183;-66
2021/01/24 05:48:59;;;;;;;1.77;1.67;;;2.40;99.90;;;;;;5051273;28;20217;-67
2021/01/24 05:51:25;;;;;;;2.53;2.20;;;2.40;99.90;;;;;;5051446;28;20492;-68
2021/01/24 05:53:51;;;;;;;4.77;2.40;;;2.40;99.90;;;;;;5051512;28;20178;-69
2021/01/24 05:56:20;;;;;;;2.17;1.60;;;2.40;99.90;;;;;;5041467;28;20493;-66
2021/01/24 05:58:54;;;;;;;3.43;2.07;;;2.40;99.90;;;;;;5050420;28;20177;-65
2021/01/24 06:01:20;;;;;;;5.60;2.23;;;2.40;99.90;;;;;;5051403;28;20449;-67
2021/01/24 06:03:47;;;;;;;3.37;2.70;;;2.30;99.90;;;;;;5051314;28;20414;-65
2021/01/24 06:06:13;;;;;;;2.60;2.17;;;2.30;99.90;;;;;;5051456;28;20809;-67
2021/01/24 06:08:39;;;;;;;4.83;2.20;;;2.20;99.90;;;;;;5051220;28;20422;-66
2021/01/24 06:11:07;;;;;;;3.93;2.63;;;2.20;99.90;;;;;;5051201;28;20471;-67
2021/01/24 06:13:34;;;;;;;3.43;2.87;;;2.30;99.90;;;;;;5051108;28;20225;-68
2021/01/24 06:16:17;;;;;;;5.53;2.00;;;2.30;99.90;;;;;;5033156;28;20430;-68
2021/01/24 06:19:02;;;;;;;3.77;2.93;;;2.30;99.90;;;;;;5051149;28;20775;-68
2021/01/24 06:21:50;;;;;;;3.67;1.33;;;2.30;99.90;;;;;;5050816;28;20432;-68
2021/01/24 06:24:33;;;;;;;3.93;3.03;;;2.30;99.90;;;;;;5051167;28;20409;-65
2021/01/24 06:27:01;;;;;;;2.47;2.27;;;2.20;99.90;;;;;;5050991;28;20471;-68
2021/01/24 06:29:28;;;;;;;3.67;2.53;;;2.20;99.90;;;;;;5051035;28;20409;-65
2021/01/24 06:31:55;;;;;;;4.10;1.87;;;2.20;99.90;;;;;;5039289;28;20450;-68
2021/01/24 06:34:37;;;;;;;5.93;2.57;;;2.20;99.90;;;;;;5030989;28;20410;-65
2021/01/24 06:37:13;;;;;;;5.37;2.70;;;2.20;99.90;;;;;;5049818;28;20443;-65
2021/01/24 06:39:57;;;;;;;2.90;2.00;;;2.30;99.90;;;;;;5028410;28;20435;-65
2021/01/24 06:42:39;;;;;;;5.17;2.23;;;2.30;99.90;;;;;;5046219;28;20899;-66
2021/01/24 06:45:05;;;;;;;4.23;2.40;;;2.40;99.90;;;;;;5042152;28;20468;-66
2021/01/24 06:47:39;;;;;;;3.63;3.17;;;2.40;99.90;;;;;;5045858;28;20424;-65
2021/01/24 06:50:43;;;;;;;2.43;2.07;;;2.40;99.90;;;;;;5032545;28;20484;-63
2021/01/24 06:53:12;;;;;;;2.97;2.13;;;2.40;99.90;;;;;;5050937;28;20453;-66
2021/01/24 06:55:51;;;;;;;8.43;3.07;;;2.40;99.90;;;;;;5050735;28;20937;-65
2021/01/24 06:58:30;;;;;;;5.00;2.60;;;2.40;99.90;;;;;;5049752;28;20477;-64
2021/01/24 07:01:20;;;;;;;4.53;3.17;;;2.50;99.90;;;;;;5050645;28;20444;-66
2021/01/24 07:03:46;;;;;;;4.20;3.27;;;2.50;99.90;;;;;;5033773;28;20449;-66
2021/01/24 07:06:33;;;;;;;6.63;3.17;;;2.50;99.90;;;;;;5050974;28;20522;-64
2021/01/24 07:08:59;;;;;;;5.40;2.37;;;2.50;99.90;;;;;;5047695;28;20521;-64
2021/01/24 07:11:50;;;;;;;2.17;1.87;;;2.50;99.90;;;;;;5034102;28;20465;-66
2021/01/24 07:14:34;;;;;;;3.50;3.10;;;2.60;99.90;;;;;;5052166;28;20934;-66
2021/01/24 07:17:14;;;;;;;4.17;3.00;;;2.50;99.90;;;;;;5053169;28;20505;-65
2021/01/24 07:19:50;;;;;;;3.63;2.90;;;2.60;99.90;;;;;;5054098;28;20424;-65
2021/01/24 07:22:17;;;;;;;7.30;3.10;;;2.60;99.90;;;;;;5054147;28;20846;-65
2021/01/24 07:24:45;;;;;;;3.50;1.90;;;2.60;99.90;;;;;;5054433;28;20482;-67
2021/01/24 07:27:16;;;;;;;3.90;3.50;;;2.70;99.90;;;;;;5054037;28;20413;-67
2021/01/24 07:29:43;;;;;;;6.13;3.30;;;2.70;99.90;;;;;;5054356;28;20464;-65
2021/01/24 07:32:20;;;;;;;7.57;3.57;;;2.70;99.90;;;;;;5052799;28;20461;-66
2021/01/24 07:34:47;;;;;;;3.00;2.47;;;2.60;99.90;;;;;;5054065;28;20421;-65
2021/01/24 07:37:13;;;;;;;5.17;3.00;;;2.50;99.90;;;;;;5054042;28;20470;-64
2021/01/24 07:39:40;;;;;;;4.77;3.57;;;2.40;99.90;;;;;;5034702;28;20462;-65
2021/01/24 07:42:06;;;;;;;8.87;4.47;;;2.40;99.90;;;;;;5053686;28;20520;-68
2021/01/24 07:44:32;;;;;;;7.10;3.90;;;2.30;99.90;;;;;;5054040;28;20428;-68
2021/01/24 07:47:04;;;;;;;4.37;3.20;;;2.30;99.90;;;;;;5053993;28;20788;-65
2021/01/24 07:49:30;;;;;;;5.73;4.37;;;2.30;99.90;;;;;;5053676;28;20704;-66
2021/01/24 07:51:56;;;;;;;4.27;2.50;;;2.40;99.90;;;;;;5042611;28;20544;-67
2021/01/24 07:54:22;;;;;;;6.63;4.20;;;2.40;99.90;;;;;;5053764;28;20516;-66
2021/01/24 07:56:48;;;;;;;9.10;4.87;;;2.30;99.90;;;;;;5053933;28;20167;-64
2021/01/24 07:59:16;;;;;;;4.40;3.53;;;2.40;99.90;;;;;;5053562;28;20421;-65
2021/01/24 08:01:41;;;;;;;5.63;3.77;;;2.30;99.90;;;;;;5053679;28;20179;-64
2021/01/24 08:04:07;;;;;;;6.87;3.63;;;2.40;99.90;;;;;;5052356;28;20420;-62
2021/01/24 08:06:34;;;;;;;7.30;4.30;;;2.30;99.90;;;;;;5053773;28;20245;-61
2021/01/24 08:09:00;;;;;;;5.67;3.70;;;2.40;99.90;;;;;;5044719;28;20176;-65
2021/01/24 08:11:27;;;;;;;3.87;2.73;;;2.40;99.90;;;;;;5044494;28;20460;-65
2021/01/24 08:13:53;;;;;;;7.10;4.10;;;2.40;99.90;;;;;;5039758;28;20175;-65
2021/01/24 08:16:32;;;;;;;6.60;4.10;;;2.40;99.90;;;;;;5048207;28;20476;-63
2021/01/24 08:18:58;;;;;;;3.50;2.77;;;2.40;99.90;;;;;;5038279;28;20170;-67
2021/01/24 08:21:25;;;;;;;5.97;3.47;;;2.50;99.90;;;;;;5043639;28;20422;-66
2021/01/24 08:23:52;;;;;;;4.47;3.03;;;2.50;99.90;;;;;;5033206;28;20415;-65
2021/01/24 08:26:19;;;;;;;11.33;4.67;;;2.50;99.90;;;;;;5049874;28;20432;-65
2021/01/24 08:28:46;;;;;;;7.60;3.73;;;2.50;99.90;;;;;;5052827;28;20814;-65
2021/01/24 08:31:17;;;;;;;5.43;3.53;;;2.50;99.90;;;;;;5044695;28;20410;-70
2021/01/24 08:33:43;;;;;;;3.67;3.03;;;2.60;99.90;;;;;;5034382;28;20450;-64
2021/01/24 08:36:22;;;;;;;7.70;4.10;;;2.50;99.90;;;;;;5044021;28;20422;-67
2021/01/24 08:38:49;;;;;;;4.73;3.80;;;2.60;99.90;;;;;;5039925;28;20413;-66
2021/01/24 08:41:16;;;;;;;4.43;3.23;;;2.70;99.90;;;;;;5045804;28;20746;-68
2021/01/24 08:43:43;;;;;;;4.37;2.93;;;2.60;99.90;;;;;;5052488;28;20504;-68
2021/01/24 08:46:26;;;;;;;6.37;2.97;;;2.70;99.90;;;;;;5052681;28;20421;-68
2021/01/24 08:49:20;;;;;;;3.00;2.60;;;2.70;99.90;;;;;;5052679;28;20819;-66
2021/01/24 08:52:00;;;;;;;5.33;3.60;;;2.70;99.90;;;;;;5038808;28;20928;-67
2021/01/24 08:54:31;;;;;;;5.43;3.23;;;2.70;99.90;;;;;;5052591;28;20409;-67
2021/01/24 08:57:08;;;;;;;4.23;3.50;;;2.70;99.90;;;;;;5052058;28;20413;-67
2021/01/24 08:59:34;;;;;;;2.97;2.37;;;2.80;99.90;;;;;;5052302;28;20512;-66
2021/01/24 09:02:00;;;;;;;3.90;3.10;;;2.80;99.90;;;;;;5052309;28;20532;-65
2021/01/24 09:04:33;;;;;;;3.03;2.50;;;2.80;99.90;;;;;;5052551;28;20183;-66
2021/01/24 09:06:59;;;;;;;5.30;3.77;;;2.80;99.90;;;;;;5028115;28;20664;-67
2021/01/24 09:09:29;;;;;;;5.70;3.53;;;2.80;99.90;;;;;;5032018;28;20497;-66
2021/01/24 09:11:55;;;;;;;2.80;2.33;;;2.90;99.90;;;;;;5017711;28;20685;-67
2021/01/24 09:14:21;;;;;;;5.23;3.47;;;2.90;99.90;;;;;;5014051;28;20426;-64
2021/01/24 09:17:06;;;;;;;3.07;2.60;;;2.90;99.90;;;;;;5032201;28;20425;-67
2021/01/24 09:19:33;;;;;;;4.13;3.50;;;2.90;99.90;;;;;;5014593;28;20450;-62
2021/01/24 09:21:59;;;;;;;8.00;3.70;;;3.00;99.90;;;;;;5020958;28;20462;-63
2021/01/24 09:24:25;;;;;;;7.07;3.43;;;3.00;99.90;;;;;;5032054;28;20477;-65
2021/01/24 09:26:51;;;;;;;1.73;1.50;;;3.00;99.90;;;;;;5032128;28;20426;-66
2021/01/24 09:29:17;;;;;;;5.50;3.30;;;3.00;99.90;;;;;;5031960;28;20187;-64
2021/01/24 09:31:43;;;;;;;4.27;3.60;;;3.00;99.90;;;;;;5032006;28;20668;-64
2021/01/24 09:34:09;;;;;;;3.73;3.07;;;3.00;99.90;;;;;;5012001;28;20423;-64
2021/01/24 09:36:35;;;;;;;6.30;3.20;;;3.10;99.90;;;;;;5015424;28;20412;-66
2021/01/24 09:39:01;;;;;;;3.33;2.50;;;3.10;99.90;;;;;;5026040;28;20920;-63
2021/01/24 09:41:27;;;;;;;4.73;3.43;;;3.10;99.90;;;;;;5031628;28;20172;-65
2021/01/24 09:44:00;;;;;;;4.50;3.00;;;3.10;99.90;;;;;;5030367;28;20176;-66
2021/01/24 09:46:26;;;;;;;3.17;2.50;;;3.10;99.90;;;;;;5013871;28;20184;-65
2021/01/24 09:48:59;;;;;;;6.37;3.50;;;3.10;99.90;;;;;;5031731;28;20421;-65
2021/01/24 09:51:24;;;;;;;5.57;2.73;;;3.20;99.90;;;;;;5030864;28;20176;-65
2021/01/24 09:53:51;;;;;;;5.70;3.20;;;3.20;99.90;;;;;;5011741;28;20419;-65
2021/01/24 09:56:17;;;;;;;6.47;3.47;;;3.20;99.90;;;;;;4997041;28;20223;-65
2021/01/24 09:58:43;;;;;;;3.73;2.97;;;3.20;99.90;;;;;;5029056;28;20887;-62
2021/01/24 10:01:09;;;;;;;4.50;2.87;;;3.30;99.90;;;;;;5031396;28;20171;-65
2021/01/24 10:03:35;;;;;;;4.20;2.10;;;3.30;99.90;;;;;;5030283;28;20465;-65
2021/01/24 10:06:01;;;;;;;3.53;2.50;;;3.30;99.90;;;;;;5035960;28;20621;-65
2021/01/24 10:08:27;;;;;;;5.83;2.60;;;3.30;99.90;;;;;;5046693;28;20443;-66
2021/01/24 10:10:52;;;;;;;6.70;3.20;;;3.30;99.90;;;;;;5047713;28;20176;-65
2021/01/24 10:13:18;;;;;;;3.97;2.30;;;3.30;99.90;;;;;;5051084;28;20278;-66
2021/01/24 10:15:48;;;;;;;3.83;2.73;;;3.30;99.90;;;;;;5051252;28;20174;-64
2021/01/24 10:18:14;;;;;;;3.30;2.20;;;3.40;99.90;;;;;;5051268;28;20806;-64
2021/01/24 10:20:40;;;;;;;4.07;3.23;;;3.40;99.90;;;;;;5044548;28;20425;-65
2021/01/24 10:23:06;;;;;;;5.60;2.73;;;3.40;99.90;;;;;;5049476;28;20414;-67
2021/01/24 10:25:31;;;;;;;5.23;2.10;;;3.50;99.90;;;;;;5051381;28;20199;-63
2021/01/24 10:27:57;;;;;;;2.57;1.63;;;3.50;99.90;;;;;;5050828;28;20178;-64
2021/01/24 10:30:23;;;;;;;1.30;1.20;;;3.50;99.90;;;;;;5051076;28;20297;-65
2021/01/24 10:32:48;;;;;;;2.83;1.77;;;3.60;99.90;;;;;;5050864;28;20222;-66
2021/01/24 10:35:14;;;;;;;4.90;2.80;;;3.60;99.90;;;;;;5050768;28;20629;-66
2021/01/24 10:37:39;;;;;;;3.70;3.00;;;3.60;99.90;;;;;;5051120;28;20250;-65
2021/01/24 10:40:06;;;;;;;4.20;1.83;;;3.60;99.90;;;;;;5035527;28;20183;-65
2021/01/24 10:42:31;;;;;;;3.00;2.70;;;3.60;99.90;;;;;;5032483;28;20210;-67
2021/01/24 10:44:58;;;;;;;3.20;2.40;;;3.60;99.90;;;;;;5030778;28;20532;-67
2021/01/24 10:47:24;;;;;;;2.63;1.77;;;3.60;99.90;;;;;;5037732;28;20207;-64
2021/01/24 10:49:50;;;;;;;3.93;2.50;;;3.50;99.90;;;;;;5052339;28;20916;-65
2021/01/24 10:52:15;;;;;;;3.97;2.63;;;3.50;99.90;;;;;;5034797;28;20469;-65
2021/01/24 10:54:41;;;;;;;2.00;1.80;;;3.60;99.90;;;;;;5054799;28;20502;-66
2021/01/24 10:57:06;;;;;;;5.33;2.27;;;3.60;99.90;;;;;;5054834;28;20629;-66
2021/01/24 10:59:32;;;;;;;4.80;2.83;;;3.70;99.90;;;;;;5044526;28;20219;-68
2021/01/24 11:01:58;;;;;;;3.57;2.30;;;3.70;99.90;;;;;;5034782;28;20196;-65
2021/01/24 11:04:24;;;;;;;2.17;1.77;;;3.80;99.90;;;;;;5053975;28;20205;-65
2021/01/24 11:06:50;;;;;;;3.87;2.40;;;3.90;99.90;;;;;;5054719;28;20449;-66
2021/01/24 11:09:15;;;;;;;3.90;1.80;;;3.90;99.90;;;;;;5054525;28;20187;-66
2021/01/24 11:11:41;;;;;;;2.17;1.90;;;4.00;99.90;;;;;;5054019;28;20669;-65
2021/01/24 11:14:06;;;;;;;3.43;2.20;;;4.00;99.90;;;;;;5045482;28;20244;-66
2021/01/24 11:16:32;;;;;;;3.27;1.77;;;4.00;99.90;;;;;;5034471;28;20651;-64
2021/01/24 11:18:57;;;;;;;2.87;2.20;;;4.00;99.90;;;;;;5052949;28;20183;-66
2021/01/24 11:21:23;;;;;;;3.37;2.20;;;3.90;99.90;;;;;;5050167;28;20176;-67
2021/01/24 11:23:49;;;;;;;3.63;1.97;;;3.90;99.90;;;;;;5042572;28;20187;-64
2021/01/24 11:26:14;;;;;;;3.43;2.50;;;3.90;99.90;;;;;;5035607;28;20599;-67
2021/01/24 11:28:40;;;;;;;5.23;2.00;;;4.00;99.90;;;;;;5034243;28;20175;-65
2021/01/24 11:31:05;;;;;;;2.43;2.03;;;4.00;99.90;;;;;;5041248;28;20261;-65
2021/01/24 11:33:31;;;;;;;6.13;2.50;;;4.10;99.90;;;;;;5054120;28;20553;-64
2021/01/24 11:35:56;;;;;;;4.33;2.83;;;4.10;99.90;;;;;;5054022;28;20182;-66
2021/01/24 11:38:23;;;;;;;2.63;1.90;;;4.10;99.90;;;;;;5036199;28;20592;-66
2021/01/24 11:40:49;;;;;;;3.03;2.27;;;4.00;99.90;;;;;;5045776;28;20184;-66
2021/01/24 11:43:15;;;;;;;6.37;3.53;;;4.10;99.90;;;;;;5036409;28;20896;-66
2021/01/24 11:45:40;;;;;;;3.20;2.40;;;4.10;99.90;;;;;;5048637;28;20217;-67
2021/01/24 11:48:06;;;;;;;2.83;2.07;;;4.10;99.90;;;;;;5053700;28;20573;-66
2021/01/24 11:50:32;;;;;;;1.47;1.37;;;3.90;99.90;;;;;;5053845;28;20525;-65
2021/01/24 11:52:57;;;;;;;2.77;1.90;;;3.90;99.90;;;;;;5053746;28;20491;-66
2021/01/24 11:55:23;;;;;;;5.30;1.80;;;3.90;99.90;;;;;;5050508;28;20182;-67
2021/01/24 11:57:49;;;;;;;1.57;1.40;;;3.90;99.90;;;;;;5040211;28;20163;-66
2021/01/24 12:00:15;;;;;;;1.83;1.67;;;3.90;99.90;;;;;;5052730;28;20218;-67
2021/01/24 12:02:40;;;;;;;3.97;2.13;;;3.90;99.90;;;;;;5053579;28;20190;-67
2021/01/24 12:05:06;;;;;;;2.53;1.93;;;4.00;99.90;;;;;;5041515;28;20438;-66
2021/01/24 12:07:32;;;;;;;3.27;2.30;;;3.90;99.90;;;;;;5053337;28;20214;-65
2021/01/24 12:09:58;;;;;;;2.17;1.97;;;3.80;99.90;;;;;;5047188;28;20457;-64
2021/01/24 12:12:24;;;;;;;2.10;1.70;;;3.80;99.90;;;;;;5051479;28;20215;-65
2021/01/24 12:14:49;;;;;;;4.67;1.33;;;3.90;99.90;;;;;;5053294;28;20172;-66
2021/01/24 12:17:23;;;;;;;2.47;1.53;;;3.90;99.90;;;;;;5053060;28;20236;-66
2021/01/24 12:19:49;;;;;;;3.60;2.10;;;3.90;99.90;;;;;;5052900;28;20163;-68
2021/01/24 12:22:15;;;;;;;2.20;2.00;;;3.90;99.90;;;;;;5051720;28;20417;-69
2021/01/24 12:24:40;;;;;;;6.67;2.00;;;3.90;99.90;;;;;;5039038;28;20413;-69
2021/01/24 12:27:06;;;;;;;3.03;1.80;;;4.00;99.90;;;;;;5048999;28;20176;-67
2021/01/24 12:29:32;;;;;;;3.30;1.93;;;4.00;99.90;;;;;;5033006;28;20188;-66
2021/01/24 12:31:57;;;;;;;6.53;2.00;;;4.10;99.90;;;;;;5051982;28;20202;-67
2021/01/24 12:34:23;;;;;;;3.20;1.50;;;4.10;99.90;;;;;;5052807;28;20172;-67
2021/01/24 12:36:48;;;;;;;4.73;2.23;;;4.10;99.90;;;;;;5049016;28;20172;-67
2021/01/24 12:39:14;;;;;;;3.50;1.70;;;4.30;99.90;;;;;;5033065;28;20179;-66
2021/01/24 12:41:40;;;;;;;5.63;2.33;;;4.70;99.90;;;;;;5034729;28;20180;-67
2021/01/24 12:44:05;;;;;;;2.77;1.30;;;4.90;99.90;;;;;;5050130;28;20171;-66
2021/01/24 12:46:31;;;;;;;3.33;2.20;;;5.10;99.90;;;;;;5047049;28;20179;-66
2021/01/24 12:48:56;;;;;;;4.73;1.73;;;5.50;99.90;;;;;;5052633;28;20721;-66
2021/01/24 12:51:22;;;;;;;3.23;1.83;;;5.80;97.40;;;;;;5034674;28;20668;-69
2021/01/24 12:53:48;;;;;;;4.43;2.00;;;5.60;96.60;;;;;;5052389;28;20182;-68
2021/01/24 12:56:13;;;;;;;4.33;1.40;;;5.50;99.60;;;;;;5049912;28;20237;-66
2021/01/24 12:58:39;;;;;;;4.47;1.70;;;5.20;98.90;;;;;;5046477;28;20673;-69
2021/01/24 13:01:05;;;;;;;2.63;1.60;;;4.90;99.90;;;;;;5052365;28;20180;-65
2021/01/24 13:03:30;;;;;;;3.73;2.27;;;4.50;99.90;;;;;;5052435;28;20182;-69